Terminal Aerodrome Forecast
Issued by NWS Pittsburgh, PA

Home | Current Version | Previous Version | Text Only | Print | Product List | Glossary On
Versions: 1 2 3 4 5 6 7 8 9 10 11 12 13 14 15 16 17 18 19 20 21 22 23 24 25 26 27 28
000
FTUS41 KPBZ 211700
TAFPIT
TAF
KPIT 211730Z 2118/2224 32010KT P6SM VCSH SCT015 BKN030
      TEMPO 2119/2121 3SM -SHRA BKN015
     FM220200 31008KT P6SM VCSH SCT010 BKN015
     FM220600 32005KT 5SM BR VCSH BKN008
     FM221200 33008KT P6SM BKN015 OVC025
     FM221500 33009KT P6SM BKN025=

USA.gov is the U.S. government's official web portal to all federal, state and local government web resources and services.